sensor_id;sensor_type;location;lat;lon;timestamp;temperature;humidity
6210;DHT22;3138;52.550;13.148;2023-11-18T00:02:13;4.40;99.90
6210;DHT22;3138;52.550;13.148;2023-11-18T00:04:40;4.40;99.90
6210;DHT22;3138;52.550;13.148;2023-11-18T00:07:08;4.30;99.90
6210;DHT22;3138;52.550;13.148;2023-11-18T00:09:35;4.30;99.90
6210;DHT22;3138;52.550;13.148;2023-11-18T00:12:02;4.30;99.90
6210;DHT22;3138;52.550;13.148;2023-11-18T00:14:30;4.30;99.90
6210;DHT22;3138;52.550;13.148;2023-11-18T00:16:57;4.40;99.90
6210;DHT22;3138;52.550;13.148;2023-11-18T00:19:24;4.30;99.90
6210;DHT22;3138;52.550;13.148;2023-11-18T00:21:51;4.40;99.90
6210;DHT22;3138;52.550;13.148;2023-11-18T00:24:20;4.40;99.90
6210;DHT22;3138;52.550;13.148;2023-11-18T00:26:47;4.40;99.90
6210;DHT22;3138;52.550;13.148;2023-11-18T00:29:14;4.40;99.90
6210;DHT22;3138;52.550;13.148;2023-11-18T00:31:40;4.40;99.90
6210;DHT22;3138;52.550;13.148;2023-11-18T00:34:07;4.40;99.90
6210;DHT22;3138;52.550;13.148;2023-11-18T00:36:34;4.40;99.90
6210;DHT22;3138;52.550;13.148;2023-11-18T00:39:01;4.40;99.90
6210;DHT22;3138;52.550;13.148;2023-11-18T00:41:31;4.40;99.90
6210;DHT22;3138;52.550;13.148;2023-11-18T00:43:57;4.40;99.90
6210;DHT22;3138;52.550;13.148;2023-11-18T00:46:24;4.40;99.90
6210;DHT22;3138;52.550;13.148;2023-11-18T00:48:51;4.40;99.90
6210;DHT22;3138;52.550;13.148;2023-11-18T00:51:18;4.40;99.90
6210;DHT22;3138;52.550;13.148;2023-11-18T00:53:45;4.50;99.90
6210;DHT22;3138;52.550;13.148;2023-11-18T00:56:15;4.40;99.90
6210;DHT22;3138;52.550;13.148;2023-11-18T00:58:44;4.50;99.90
6210;DHT22;3138;52.550;13.148;2023-11-18T01:01:11;4.50;99.90
6210;DHT22;3138;52.550;13.148;2023-11-18T01:03:38;4.50;99.90
6210;DHT22;3138;52.550;13.148;2023-11-18T01:06:05;4.50;99.90
6210;DHT22;3138;52.550;13.148;2023-11-18T01:08:32;4.50;99.90
6210;DHT22;3138;52.550;13.148;2023-11-18T01:10:59;4.50;99.90
6210;DHT22;3138;52.550;13.148;2023-11-18T01:13:26;4.50;99.90
6210;DHT22;3138;52.550;13.148;2023-11-18T01:15:54;4.40;99.90
6210;DHT22;3138;52.550;13.148;2023-11-18T01:18:21;4.40;99.90
6210;DHT22;3138;52.550;13.148;2023-11-18T01:20:48;4.50;99.90
6210;DHT22;3138;52.550;13.148;2023-11-18T01:23:15;4.50;99.90
6210;DHT22;3138;52.550;13.148;2023-11-18T01:25:41;4.50;99.90
6210;DHT22;3138;52.550;13.148;2023-11-18T01:28:09;4.50;99.90
6210;DHT22;3138;52.550;13.148;2023-11-18T01:30:36;4.50;99.90
6210;DHT22;3138;52.550;13.148;2023-11-18T01:33:04;4.50;99.90
6210;DHT22;3138;52.550;13.148;2023-11-18T01:35:31;4.50;99.90
6210;DHT22;3138;52.550;13.148;2023-11-18T01:37:58;4.50;99.90
6210;DHT22;3138;52.550;13.148;2023-11-18T01:40:25;4.50;99.90
6210;DHT22;3138;52.550;13.148;2023-11-18T01:42:51;4.50;99.90
6210;DHT22;3138;52.550;13.148;2023-11-18T01:45:18;4.50;99.90
6210;DHT22;3138;52.550;13.148;2023-11-18T01:47:46;4.50;99.90
6210;DHT22;3138;52.550;13.148;2023-11-18T01:50:16;4.50;99.90
6210;DHT22;3138;52.550;13.148;2023-11-18T01:52:45;4.50;99.90
6210;DHT22;3138;52.550;13.148;2023-11-18T01:55:13;4.50;99.90
6210;DHT22;3138;52.550;13.148;2023-11-18T01:57:43;4.50;99.90
6210;DHT22;3138;52.550;13.148;2023-11-18T02:00:12;4.50;99.90
6210;DHT22;3138;52.550;13.148;2023-11-18T02:02:39;4.50;99.90
6210;DHT22;3138;52.550;13.148;2023-11-18T02:05:06;4.50;99.90
6210;DHT22;3138;52.550;13.148;2023-11-18T02:07:34;4.50;99.90
6210;DHT22;3138;52.550;13.148;2023-11-18T02:10:03;4.50;99.90
6210;DHT22;3138;52.550;13.148;2023-11-18T02:12:38;4.50;99.90
6210;DHT22;3138;52.550;13.148;2023-11-18T02:15:10;4.50;99.90
6210;DHT22;3138;52.550;13.148;2023-11-18T02:17:38;4.40;99.90
6210;DHT22;3138;52.550;13.148;2023-11-18T02:20:08;4.40;99.90
6210;DHT22;3138;52.550;13.148;2023-11-18T02:22:43;4.40;99.90
6210;DHT22;3138;52.550;13.148;2023-11-18T02:25:10;4.40;99.90
6210;DHT22;3138;52.550;13.148;2023-11-18T02:27:43;4.40;99.90
6210;DHT22;3138;52.550;13.148;2023-11-18T02:30:11;4.40;99.90
6210;DHT22;3138;52.550;13.148;2023-11-18T02:32:46;4.40;99.90
6210;DHT22;3138;52.550;13.148;2023-11-18T02:35:20;4.40;99.90
6210;DHT22;3138;52.550;13.148;2023-11-18T02:37:52;4.40;99.90
6210;DHT22;3138;52.550;13.148;2023-11-18T02:40:24;4.40;99.90
6210;DHT22;3138;52.550;13.148;2023-11-18T02:42:57;4.40;99.90
6210;DHT22;3138;52.550;13.148;2023-11-18T02:45:26;4.30;99.90
6210;DHT22;3138;52.550;13.148;2023-11-18T02:47:53;4.20;99.90
6210;DHT22;3138;52.550;13.148;2023-11-18T02:50:23;4.20;99.90
6210;DHT22;3138;52.550;13.148;2023-11-18T02:52:50;4.10;99.90
6210;DHT22;3138;52.550;13.148;2023-11-18T02:55:17;4.10;99.90
6210;DHT22;3138;52.550;13.148;2023-11-18T02:57:44;4.00;99.90
6210;DHT22;3138;52.550;13.148;2023-11-18T03:00:13;3.90;99.90
6210;DHT22;3138;52.550;13.148;2023-11-18T03:02:44;3.80;99.90
6210;DHT22;3138;52.550;13.148;2023-11-18T03:05:11;3.80;99.90
6210;DHT22;3138;52.550;13.148;2023-11-18T03:07:38;3.70;99.90
6210;DHT22;3138;52.550;13.148;2023-11-18T03:10:06;3.70;99.90
6210;DHT22;3138;52.550;13.148;2023-11-18T03:12:36;3.70;99.90
6210;DHT22;3138;52.550;13.148;2023-11-18T03:15:04;3.70;99.90
6210;DHT22;3138;52.550;13.148;2023-11-18T03:17:33;3.70;99.90
6210;DHT22;3138;52.550;13.148;2023-11-18T03:20:00;3.60;99.90
6210;DHT22;3138;52.550;13.148;2023-11-18T03:22:27;3.60;99.90
6210;DHT22;3138;52.550;13.148;2023-11-18T03:24:54;3.70;99.90
6210;DHT22;3138;52.550;13.148;2023-11-18T03:27:21;3.70;99.90
6210;DHT22;3138;52.550;13.148;2023-11-18T03:29:48;3.70;99.90
6210;DHT22;3138;52.550;13.148;2023-11-18T03:32:15;3.60;99.90
6210;DHT22;3138;52.550;13.148;2023-11-18T03:34:44;3.60;99.90
6210;DHT22;3138;52.550;13.148;2023-11-18T03:37:11;3.60;99.90
6210;DHT22;3138;52.550;13.148;2023-11-18T03:39:38;3.60;99.90
6210;DHT22;3138;52.550;13.148;2023-11-18T03:42:04;3.70;99.90
6210;DHT22;3138;52.550;13.148;2023-11-18T03:44:31;3.70;99.90
6210;DHT22;3138;52.550;13.148;2023-11-18T03:46:58;3.70;99.90
6210;DHT22;3138;52.550;13.148;2023-11-18T03:49:28;3.70;99.90
6210;DHT22;3138;52.550;13.148;2023-11-18T03:51:56;3.70;99.90
6210;DHT22;3138;52.550;13.148;2023-11-18T03:54:23;3.80;99.90
6210;DHT22;3138;52.550;13.148;2023-11-18T03:56:50;3.80;99.90
6210;DHT22;3138;52.550;13.148;2023-11-18T03:59:17;3.80;99.90
6210;DHT22;3138;52.550;13.148;2023-11-18T04:01:44;3.80;99.90
6210;DHT22;3138;52.550;13.148;2023-11-18T04:04:10;3.80;99.90
6210;DHT22;3138;52.550;13.148;2023-11-18T04:06:37;3.90;99.90
6210;DHT22;3138;52.550;13.148;2023-11-18T04:09:05;3.80;99.90
6210;DHT22;3138;52.550;13.148;2023-11-18T04:11:34;3.90;99.90
6210;DHT22;3138;52.550;13.148;2023-11-18T04:14:01;3.90;99.90
6210;DHT22;3138;52.550;13.148;2023-11-18T04:16:28;3.80;99.90
6210;DHT22;3138;52.550;13.148;2023-11-18T04:18:55;3.90;99.90
6210;DHT22;3138;52.550;13.148;2023-11-18T04:21:22;3.80;99.90
6210;DHT22;3138;52.550;13.148;2023-11-18T04:23:49;3.90;99.90
6210;DHT22;3138;52.550;13.148;2023-11-18T04:26:17;3.80;99.90
6210;DHT22;3138;52.550;13.148;2023-11-18T04:28:44;3.80;99.90
6210;DHT22;3138;52.550;13.148;2023-11-18T04:31:11;3.80;99.90
6210;DHT22;3138;52.550;13.148;2023-11-18T04:33:37;3.70;99.90
6210;DHT22;3138;52.550;13.148;2023-11-18T04:36:06;3.70;99.90
6210;DHT22;3138;52.550;13.148;2023-11-18T04:38:35;3.70;99.90
6210;DHT22;3138;52.550;13.148;2023-11-18T04:41:02;3.60;99.90
6210;DHT22;3138;52.550;13.148;2023-11-18T04:43:34;3.60;99.90
6210;DHT22;3138;52.550;13.148;2023-11-18T04:46:01;3.60;99.90
6210;DHT22;3138;52.550;13.148;2023-11-18T04:48:27;3.50;99.90
6210;DHT22;3138;52.550;13.148;2023-11-18T04:50:54;3.50;99.90
6210;DHT22;3138;52.550;13.148;2023-11-18T04:53:21;3.50;99.90
6210;DHT22;3138;52.550;13.148;2023-11-18T04:55:48;3.50;99.90
6210;DHT22;3138;52.550;13.148;2023-11-18T04:58:15;3.50;99.90
6210;DHT22;3138;52.550;13.148;2023-11-18T05:00:43;3.60;99.90
6210;DHT22;3138;52.550;13.148;2023-11-18T05:03:10;3.60;99.90
6210;DHT22;3138;52.550;13.148;2023-11-18T05:05:38;3.60;99.90
6210;DHT22;3138;52.550;13.148;2023-11-18T05:08:05;3.60;99.90
6210;DHT22;3138;52.550;13.148;2023-11-18T05:10:33;3.60;99.90
6210;DHT22;3138;52.550;13.148;2023-11-18T05:13:00;3.60;99.90
6210;DHT22;3138;52.550;13.148;2023-11-18T05:15:27;3.70;99.90
6210;DHT22;3138;52.550;13.148;2023-11-18T05:17:57;3.70;99.90
6210;DHT22;3138;52.550;13.148;2023-11-18T05:20:23;3.80;99.90
6210;DHT22;3138;52.550;13.148;2023-11-18T05:22:50;3.80;99.90
6210;DHT22;3138;52.550;13.148;2023-11-18T05:25:17;3.80;99.90
6210;DHT22;3138;52.550;13.148;2023-11-18T05:27:46;3.90;99.90
6210;DHT22;3138;52.550;13.148;2023-11-18T05:30:13;3.90;99.90
6210;DHT22;3138;52.550;13.148;2023-11-18T05:32:40;3.90;99.90
6210;DHT22;3138;52.550;13.148;2023-11-18T05:35:08;3.90;99.90
6210;DHT22;3138;52.550;13.148;2023-11-18T05:37:37;3.90;99.90
6210;DHT22;3138;52.550;13.148;2023-11-18T05:40:07;3.90;99.90
6210;DHT22;3138;52.550;13.148;2023-11-18T05:42:35;3.90;99.90
6210;DHT22;3138;52.550;13.148;2023-11-18T05:45:03;3.90;99.90
6210;DHT22;3138;52.550;13.148;2023-11-18T05:47:30;3.90;99.90
6210;DHT22;3138;52.550;13.148;2023-11-18T05:49:58;3.90;99.90
6210;DHT22;3138;52.550;13.148;2023-11-18T05:52:26;3.80;99.90
6210;DHT22;3138;52.550;13.148;2023-11-18T05:54:53;3.70;99.90
6210;DHT22;3138;52.550;13.148;2023-11-18T05:57:20;3.60;99.90
6210;DHT22;3138;52.550;13.148;2023-11-18T05:59:47;3.60;99.90
6210;DHT22;3138;52.550;13.148;2023-11-18T06:02:14;3.60;99.90
6210;DHT22;3138;52.550;13.148;2023-11-18T06:04:44;3.50;99.90
6210;DHT22;3138;52.550;13.148;2023-11-18T06:07:10;3.50;99.90
6210;DHT22;3138;52.550;13.148;2023-11-18T06:09:40;3.60;99.90
6210;DHT22;3138;52.550;13.148;2023-11-18T06:12:07;3.60;99.90
6210;DHT22;3138;52.550;13.148;2023-11-18T06:14:36;3.60;99.90
6210;DHT22;3138;52.550;13.148;2023-11-18T06:17:03;3.70;99.90
6210;DHT22;3138;52.550;13.148;2023-11-18T06:19:30;3.80;99.90
6210;DHT22;3138;52.550;13.148;2023-11-18T06:21:56;3.80;99.90
6210;DHT22;3138;52.550;13.148;2023-11-18T06:24:23;3.90;99.90
6210;DHT22;3138;52.550;13.148;2023-11-18T06:26:51;3.90;99.90
6210;DHT22;3138;52.550;13.148;2023-11-18T06:29:18;3.90;99.90
6210;DHT22;3138;52.550;13.148;2023-11-18T06:31:45;3.90;99.90
6210;DHT22;3138;52.550;13.148;2023-11-18T06:34:12;3.90;99.90
6210;DHT22;3138;52.550;13.148;2023-11-18T06:36:39;4.00;99.90
6210;DHT22;3138;52.550;13.148;2023-11-18T06:39:06;4.00;99.90
6210;DHT22;3138;52.550;13.148;2023-11-18T06:41:34;4.00;99.90
6210;DHT22;3138;52.550;13.148;2023-11-18T06:44:05;4.00;99.90
6210;DHT22;3138;52.550;13.148;2023-11-18T06:46:38;4.00;99.90
6210;DHT22;3138;52.550;13.148;2023-11-18T06:49:06;4.00;99.90
6210;DHT22;3138;52.550;13.148;2023-11-18T06:51:34;4.00;99.90
6210;DHT22;3138;52.550;13.148;2023-11-18T06:54:04;4.00;99.90
6210;DHT22;3138;52.550;13.148;2023-11-18T06:56:35;4.10;99.90
6210;DHT22;3138;52.550;13.148;2023-11-18T06:59:04;4.10;99.90
6210;DHT22;3138;52.550;13.148;2023-11-18T07:01:34;4.20;99.90
6210;DHT22;3138;52.550;13.148;2023-11-18T07:04:01;4.20;99.90
6210;DHT22;3138;52.550;13.148;2023-11-18T07:06:28;4.20;99.90
6210;DHT22;3138;52.550;13.148;2023-11-18T07:08:55;4.20;99.90
6210;DHT22;3138;52.550;13.148;2023-11-18T07:11:26;4.20;99.90
6210;DHT22;3138;52.550;13.148;2023-11-18T07:13:53;4.20;99.90
6210;DHT22;3138;52.550;13.148;2023-11-18T07:16:23;4.20;99.90
6210;DHT22;3138;52.550;13.148;2023-11-18T07:18:50;4.30;99.90
6210;DHT22;3138;52.550;13.148;2023-11-18T07:21:18;4.30;99.90
6210;DHT22;3138;52.550;13.148;2023-11-18T07:23:45;4.40;99.90
6210;DHT22;3138;52.550;13.148;2023-11-18T07:26:11;4.40;99.90
6210;DHT22;3138;52.550;13.148;2023-11-18T07:28:39;4.40;99.90
6210;DHT22;3138;52.550;13.148;2023-11-18T07:31:06;4.40;99.90
6210;DHT22;3138;52.550;13.148;2023-11-18T07:33:35;4.50;99.90
6210;DHT22;3138;52.550;13.148;2023-11-18T07:36:02;4.40;99.90
6210;DHT22;3138;52.550;13.148;2023-11-18T07:38:31;4.50;99.90
6210;DHT22;3138;52.550;13.148;2023-11-18T07:41:00;4.40;99.90
6210;DHT22;3138;52.550;13.148;2023-11-18T07:43:30;4.40;99.90
6210;DHT22;3138;52.550;13.148;2023-11-18T07:45:56;4.50;99.90
6210;DHT22;3138;52.550;13.148;2023-11-18T07:48:23;4.60;99.90
6210;DHT22;3138;52.550;13.148;2023-11-18T07:50:51;4.60;99.90
6210;DHT22;3138;52.550;13.148;2023-11-18T07:53:18;4.60;99.90
6210;DHT22;3138;52.550;13.148;2023-11-18T07:55:46;4.70;99.90
6210;DHT22;3138;52.550;13.148;2023-11-18T07:58:13;4.70;99.90
6210;DHT22;3138;52.550;13.148;2023-11-18T08:00:41;4.70;99.90
6210;DHT22;3138;52.550;13.148;2023-11-18T08:03:08;4.70;99.90
6210;DHT22;3138;52.550;13.148;2023-11-18T08:05:37;4.80;99.90
6210;DHT22;3138;52.550;13.148;2023-11-18T08:08:06;4.70;99.90
6210;DHT22;3138;52.550;13.148;2023-11-18T08:10:34;4.70;99.90
6210;DHT22;3138;52.550;13.148;2023-11-18T08:13:03;4.70;99.90
6210;DHT22;3138;52.550;13.148;2023-11-18T08:15:30;4.80;99.90
6210;DHT22;3138;52.550;13.148;2023-11-18T08:17:57;4.80;99.90
6210;DHT22;3138;52.550;13.148;2023-11-18T08:20:25;4.80;99.90
6210;DHT22;3138;52.550;13.148;2023-11-18T08:22:52;4.80;99.90
6210;DHT22;3138;52.550;13.148;2023-11-18T08:25:20;4.80;99.90
6210;DHT22;3138;52.550;13.148;2023-11-18T08:27:47;4.80;99.90
6210;DHT22;3138;52.550;13.148;2023-11-18T08:30:15;4.70;99.90
6210;DHT22;3138;52.550;13.148;2023-11-18T08:32:44;4.70;99.90
6210;DHT22;3138;52.550;13.148;2023-11-18T08:35:12;4.80;99.90
6210;DHT22;3138;52.550;13.148;2023-11-18T08:37:40;4.80;99.90
6210;DHT22;3138;52.550;13.148;2023-11-18T08:40:08;4.90;99.90
6210;DHT22;3138;52.550;13.148;2023-11-18T08:42:42;4.90;99.90
6210;DHT22;3138;52.550;13.148;2023-11-18T08:45:14;4.90;99.90
6210;DHT22;3138;52.550;13.148;2023-11-18T08:47:43;4.90;99.90
6210;DHT22;3138;52.550;13.148;2023-11-18T08:50:10;5.00;99.90
6210;DHT22;3138;52.550;13.148;2023-11-18T08:52:38;5.10;99.90
6210;DHT22;3138;52.550;13.148;2023-11-18T08:55:10;4.90;99.90
6210;DHT22;3138;52.550;13.148;2023-11-18T08:57:44;5.00;99.90
6210;DHT22;3138;52.550;13.148;2023-11-18T09:00:25;5.00;99.90
6210;DHT22;3138;52.550;13.148;2023-11-18T09:03:10;5.10;99.90
6210;DHT22;3138;52.550;13.148;2023-11-18T09:05:44;5.40;99.90
6210;DHT22;3138;52.550;13.148;2023-11-18T09:08:23;5.40;99.90
6210;DHT22;3138;52.550;13.148;2023-11-18T09:10:50;5.40;99.90
6210;DHT22;3138;52.550;13.148;2023-11-18T09:13:21;5.20;99.90
6210;DHT22;3138;52.550;13.148;2023-11-18T09:15:48;5.30;99.90
6210;DHT22;3138;52.550;13.148;2023-11-18T09:18:15;5.20;99.90
6210;DHT22;3138;52.550;13.148;2023-11-18T09:20:43;5.20;99.90
6210;DHT22;3138;52.550;13.148;2023-11-18T09:23:11;5.10;99.90
6210;DHT22;3138;52.550;13.148;2023-11-18T09:25:38;5.10;99.90
6210;DHT22;3138;52.550;13.148;2023-11-18T09:28:06;5.20;99.90
6210;DHT22;3138;52.550;13.148;2023-11-18T09:30:37;5.30;99.90
6210;DHT22;3138;52.550;13.148;2023-11-18T09:33:18;5.50;99.90
6210;DHT22;3138;52.550;13.148;2023-11-18T09:35:52;5.50;99.90
6210;DHT22;3138;52.550;13.148;2023-11-18T09:38:22;5.40;99.90
6210;DHT22;3138;52.550;13.148;2023-11-18T09:40:52;5.40;99.90
6210;DHT22;3138;52.550;13.148;2023-11-18T09:43:20;5.60;99.90
6210;DHT22;3138;52.550;13.148;2023-11-18T09:45:50;5.50;99.90
6210;DHT22;3138;52.550;13.148;2023-11-18T09:48:20;5.50;99.90
6210;DHT22;3138;52.550;13.148;2023-11-18T09:50:52;5.40;99.90
6210;DHT22;3138;52.550;13.148;2023-11-18T09:53:20;5.50;99.90
6210;DHT22;3138;52.550;13.148;2023-11-18T09:55:54;5.40;99.90
6210;DHT22;3138;52.550;13.148;2023-11-18T09:58:43;5.50;99.90
6210;DHT22;3138;52.550;13.148;2023-11-18T10:01:17;5.70;99.90
6210;DHT22;3138;52.550;13.148;2023-11-18T10:03:47;5.70;99.90
6210;DHT22;3138;52.550;13.148;2023-11-18T10:06:14;5.70;99.90
6210;DHT22;3138;52.550;13.148;2023-11-18T10:08:42;6.00;99.90
6210;DHT22;3138;52.550;13.148;2023-11-18T10:11:11;6.20;99.90
6210;DHT22;3138;52.550;13.148;2023-11-18T10:13:39;6.30;99.90
6210;DHT22;3138;52.550;13.148;2023-11-18T10:16:09;6.20;99.90
6210;DHT22;3138;52.550;13.148;2023-11-18T10:18:39;6.10;99.90
6210;DHT22;3138;52.550;13.148;2023-11-18T10:21:14;6.00;99.90
6210;DHT22;3138;52.550;13.148;2023-11-18T10:23:58;5.90;99.90
6210;DHT22;3138;52.550;13.148;2023-11-18T10:26:25;5.80;99.90
6210;DHT22;3138;52.550;13.148;2023-11-18T10:32:16;5.80;99.90
6210;DHT22;3138;52.550;13.148;2023-11-18T10:34:48;5.80;99.90
6210;DHT22;3138;52.550;13.148;2023-11-18T10:37:16;5.90;99.90
6210;DHT22;3138;52.550;13.148;2023-11-18T10:39:47;5.90;99.90
6210;DHT22;3138;52.550;13.148;2023-11-18T10:42:17;5.80;99.90
6210;DHT22;3138;52.550;13.148;2023-11-18T10:45:02;5.70;99.90
6210;DHT22;3138;52.550;13.148;2023-11-18T10:47:33;5.80;99.90
6210;DHT22;3138;52.550;13.148;2023-11-18T10:50:02;5.80;99.90
6210;DHT22;3138;52.550;13.148;2023-11-18T10:52:28;5.80;99.90
6210;DHT22;3138;52.550;13.148;2023-11-18T10:55:00;5.90;99.90
6210;DHT22;3138;52.550;13.148;2023-11-18T10:57:36;5.80;99.90
6210;DHT22;3138;52.550;13.148;2023-11-18T11:00:05;5.70;99.90
6210;DHT22;3138;52.550;13.148;2023-11-18T11:02:38;5.80;99.90
6210;DHT22;3138;52.550;13.148;2023-11-18T11:05:08;5.80;99.90
6210;DHT22;3138;52.550;13.148;2023-11-18T11:07:42;5.80;99.90
6210;DHT22;3138;52.550;13.148;2023-11-18T11:10:09;5.90;99.90
6210;DHT22;3138;52.550;13.148;2023-11-18T11:12:45;6.10;99.90
6210;DHT22;3138;52.550;13.148;2023-11-18T11:15:22;6.20;99.90
6210;DHT22;3138;52.550;13.148;2023-11-18T11:17:52;6.10;99.90
6210;DHT22;3138;52.550;13.148;2023-11-18T11:20:23;5.90;99.90
6210;DHT22;3138;52.550;13.148;2023-11-18T11:23:05;6.20;99.90
6210;DHT22;3138;52.550;13.148;2023-11-18T11:25:41;6.20;99.90
6210;DHT22;3138;52.550;13.148;2023-11-18T11:28:16;5.90;99.90
6210;DHT22;3138;52.550;13.148;2023-11-18T11:30:46;6.10;99.90
6210;DHT22;3138;52.550;13.148;2023-11-18T11:33:28;6.30;99.90
6210;DHT22;3138;52.550;13.148;2023-11-18T11:36:00;6.50;99.90
6210;DHT22;3138;52.550;13.148;2023-11-18T11:38:29;6.50;99.90
6210;DHT22;3138;52.550;13.148;2023-11-18T11:40:58;6.60;99.90
6210;DHT22;3138;52.550;13.148;2023-11-18T11:43:27;6.70;99.90
6210;DHT22;3138;52.550;13.148;2023-11-18T11:45:55;6.60;99.90
6210;DHT22;3138;52.550;13.148;2023-11-18T11:48:24;6.60;99.90
6210;DHT22;3138;52.550;13.148;2023-11-18T11:51:22;6.60;99.90
6210;DHT22;3138;52.550;13.148;2023-11-18T11:53:55;6.60;99.90
6210;DHT22;3138;52.550;13.148;2023-11-18T11:56:39;6.40;99.90
6210;DHT22;3138;52.550;13.148;2023-11-18T11:59:06;6.30;99.90
6210;DHT22;3138;52.550;13.148;2023-11-18T12:01:37;6.20;99.90
6210;DHT22;3138;52.550;13.148;2023-11-18T12:04:04;6.20;99.90
6210;DHT22;3138;52.550;13.148;2023-11-18T12:06:41;6.40;99.90
6210;DHT22;3138;52.550;13.148;2023-11-18T12:09:10;6.30;99.90
6210;DHT22;3138;52.550;13.148;2023-11-18T12:11:38;6.10;99.90
6210;DHT22;3138;52.550;13.148;2023-11-18T12:14:08;6.30;99.90
6210;DHT22;3138;52.550;13.148;2023-11-18T12:17:02;6.30;99.90
6210;DHT22;3138;52.550;13.148;2023-11-18T12:19:35;6.20;99.90
6210;DHT22;3138;52.550;13.148;2023-11-18T12:22:15;6.10;99.90
6210;DHT22;3138;52.550;13.148;2023-11-18T12:27:58;6.30;99.90
6210;DHT22;3138;52.550;13.148;2023-11-18T12:30:41;6.30;99.90
6210;DHT22;3138;52.550;13.148;2023-11-18T12:33:18;6.30;99.90
6210;DHT22;3138;52.550;13.148;2023-11-18T12:36:08;6.20;99.90
6210;DHT22;3138;52.550;13.148;2023-11-18T12:39:01;6.30;99.90
6210;DHT22;3138;52.550;13.148;2023-11-18T12:41:34;6.50;99.90
6210;DHT22;3138;52.550;13.148;2023-11-18T12:44:14;6.40;99.90
6210;DHT22;3138;52.550;13.148;2023-11-18T12:46:51;6.40;99.90
6210;DHT22;3138;52.550;13.148;2023-11-18T12:49:23;6.30;99.90
6210;DHT22;3138;52.550;13.148;2023-11-18T12:51:50;6.30;99.90
6210;DHT22;3138;52.550;13.148;2023-11-18T12:54:19;6.00;99.90
6210;DHT22;3138;52.550;13.148;2023-11-18T12:56:47;6.20;99.90
6210;DHT22;3138;52.550;13.148;2023-11-18T12:59:15;6.20;99.90
6210;DHT22;3138;52.550;13.148;2023-11-18T13:01:44;6.20;99.90
6210;DHT22;3138;52.550;13.148;2023-11-18T13:04:17;6.30;99.90
6210;DHT22;3138;52.550;13.148;2023-11-18T13:06:46;6.20;99.90
6210;DHT22;3138;52.550;13.148;2023-11-18T13:09:14;6.20;99.90
6210;DHT22;3138;52.550;13.148;2023-11-18T13:11:53;6.10;99.90
6210;DHT22;3138;52.550;13.148;2023-11-18T13:14:22;6.00;99.90
6210;DHT22;3138;52.550;13.148;2023-11-18T13:16:51;6.10;99.90
6210;DHT22;3138;52.550;13.148;2023-11-18T13:19:27;6.20;99.90
6210;DHT22;3138;52.550;13.148;2023-11-18T13:21:57;6.10;99.90
6210;DHT22;3138;52.550;13.148;2023-11-18T13:24:25;6.10;99.90
6210;DHT22;3138;52.550;13.148;2023-11-18T13:26:55;6.10;99.90
6210;DHT22;3138;52.550;13.148;2023-11-18T13:29:23;6.00;99.90
6210;DHT22;3138;52.550;13.148;2023-11-18T13:31:51;5.90;99.90
6210;DHT22;3138;52.550;13.148;2023-11-18T13:34:18;5.90;99.90
6210;DHT22;3138;52.550;13.148;2023-11-18T13:36:45;5.80;99.90
6210;DHT22;3138;52.550;13.148;2023-11-18T13:39:16;5.80;99.90
6210;DHT22;3138;52.550;13.148;2023-11-18T13:41:43;5.70;99.90
6210;DHT22;3138;52.550;13.148;2023-11-18T13:44:12;5.70;99.90
6210;DHT22;3138;52.550;13.148;2023-11-18T13:46:39;5.70;99.90
6210;DHT22;3138;52.550;13.148;2023-11-18T13:49:08;5.80;99.90
6210;DHT22;3138;52.550;13.148;2023-11-18T13:51:35;5.70;99.90
6210;DHT22;3138;52.550;13.148;2023-11-18T13:54:02;5.60;99.90
6210;DHT22;3138;52.550;13.148;2023-11-18T13:56:30;5.60;99.90
6210;DHT22;3138;52.550;13.148;2023-11-18T13:58:58;5.50;99.90
6210;DHT22;3138;52.550;13.148;2023-11-18T14:01:27;5.50;99.90
6210;DHT22;3138;52.550;13.148;2023-11-18T14:03:54;5.30;99.90
6210;DHT22;3138;52.550;13.148;2023-11-18T14:06:27;5.30;99.90
6210;DHT22;3138;52.550;13.148;2023-11-18T14:08:56;5.20;99.90
6210;DHT22;3138;52.550;13.148;2023-11-18T14:11:23;5.00;99.90
6210;DHT22;3138;52.550;13.148;2023-11-18T14:13:50;5.00;99.90
6210;DHT22;3138;52.550;13.148;2023-11-18T14:16:19;4.90;99.90
6210;DHT22;3138;52.550;13.148;2023-11-18T14:18:50;4.90;99.90
6210;DHT22;3138;52.550;13.148;2023-11-18T14:21:17;4.90;99.90
6210;DHT22;3138;52.550;13.148;2023-11-18T14:23:45;4.90;99.90
6210;DHT22;3138;52.550;13.148;2023-11-18T14:26:12;5.00;99.90
6210;DHT22;3138;52.550;13.148;2023-11-18T14:28:39;5.00;99.90
6210;DHT22;3138;52.550;13.148;2023-11-18T14:31:08;5.00;99.90
6210;DHT22;3138;52.550;13.148;2023-11-18T14:33:36;5.00;99.90
6210;DHT22;3138;52.550;13.148;2023-11-18T14:36:05;5.10;99.90
6210;DHT22;3138;52.550;13.148;2023-11-18T14:38:34;5.20;99.90
6210;DHT22;3138;52.550;13.148;2023-11-18T14:41:02;5.10;99.90
6210;DHT22;3138;52.550;13.148;2023-11-18T14:43:30;5.20;99.90
6210;DHT22;3138;52.550;13.148;2023-11-18T14:45:57;5.20;99.90
6210;DHT22;3138;52.550;13.148;2023-11-18T14:48:24;5.20;99.90
6210;DHT22;3138;52.550;13.148;2023-11-18T14:50:52;5.20;99.90
6210;DHT22;3138;52.550;13.148;2023-11-18T14:53:21;5.30;99.90
6210;DHT22;3138;52.550;13.148;2023-11-18T14:55:48;5.30;99.90
6210;DHT22;3138;52.550;13.148;2023-11-18T14:58:16;5.30;99.90
6210;DHT22;3138;52.550;13.148;2023-11-18T15:00:43;5.30;99.90
6210;DHT22;3138;52.550;13.148;2023-11-18T15:03:09;5.30;99.90
6210;DHT22;3138;52.550;13.148;2023-11-18T15:05:36;5.20;99.90
6210;DHT22;3138;52.550;13.148;2023-11-18T15:08:04;5.30;99.90
6210;DHT22;3138;52.550;13.148;2023-11-18T15:10:36;5.20;99.90
6210;DHT22;3138;52.550;13.148;2023-11-18T15:13:05;5.30;99.90
6210;DHT22;3138;52.550;13.148;2023-11-18T15:15:32;5.20;99.90
6210;DHT22;3138;52.550;13.148;2023-11-18T15:18:00;5.30;99.90
6210;DHT22;3138;52.550;13.148;2023-11-18T15:20:29;5.20;99.90
6210;DHT22;3138;52.550;13.148;2023-11-18T15:22:56;5.20;99.90
6210;DHT22;3138;52.550;13.148;2023-11-18T15:25:23;5.10;99.90
6210;DHT22;3138;52.550;13.148;2023-11-18T15:27:51;5.10;99.90
6210;DHT22;3138;52.550;13.148;2023-11-18T15:30:18;5.10;99.90
6210;DHT22;3138;52.550;13.148;2023-11-18T15:32:47;5.10;99.90
6210;DHT22;3138;52.550;13.148;2023-11-18T15:35:14;5.00;99.90
6210;DHT22;3138;52.550;13.148;2023-11-18T15:37:42;5.10;99.90
6210;DHT22;3138;52.550;13.148;2023-11-18T15:40:12;5.00;99.90
6210;DHT22;3138;52.550;13.148;2023-11-18T15:42:40;5.00;99.90
6210;DHT22;3138;52.550;13.148;2023-11-18T15:45:10;5.00;99.90
6210;DHT22;3138;52.550;13.148;2023-11-18T15:47:37;5.00;99.90
6210;DHT22;3138;52.550;13.148;2023-11-18T15:50:06;5.00;99.90
6210;DHT22;3138;52.550;13.148;2023-11-18T15:52:33;5.10;99.90
6210;DHT22;3138;52.550;13.148;2023-11-18T15:55:01;5.00;99.90
6210;DHT22;3138;52.550;13.148;2023-11-18T15:57:36;5.00;99.90
6210;DHT22;3138;52.550;13.148;2023-11-18T16:00:04;4.90;99.90
6210;DHT22;3138;52.550;13.148;2023-11-18T16:02:35;4.90;99.90
6210;DHT22;3138;52.550;13.148;2023-11-18T16:05:03;4.80;99.90
6210;DHT22;3138;52.550;13.148;2023-11-18T16:07:29;4.70;99.90
6210;DHT22;3138;52.550;13.148;2023-11-18T16:09:56;4.60;99.90
6210;DHT22;3138;52.550;13.148;2023-11-18T16:12:25;4.60;99.90
6210;DHT22;3138;52.550;13.148;2023-11-18T16:14:54;4.60;99.90
6210;DHT22;3138;52.550;13.148;2023-11-18T16:17:21;4.50;99.90
6210;DHT22;3138;52.550;13.148;2023-11-18T16:19:49;4.50;99.90
6210;DHT22;3138;52.550;13.148;2023-11-18T16:22:16;4.30;99.90